Terminal Aerodrome Forecast
Issued by NWS

Home | Current Version | Previous Version | Graphics & Text | Print | Product List | Glossary On
Versions: 1 2 3 4 5 6 7 8 9 10 11 12 13 14
414
FTUS43 KTOP 212101 AAA
TAFMHK
TAF AMD
KMHK 212101Z 2121/2218 28009KT P6SM VCSH BKN050
     FM212200 34012G22KT P6SM SCT100
     FM221100 VRB03KT P6SM FEW250=

USA.gov is the U.S. government's official web portal to all federal, state and local government web resources and services.